createdAt,value
2018-02-07T00:01:30.894Z,2.10
2018-02-07T00:03:59.012Z,2.12
2018-02-07T00:06:27.153Z,2.25
2018-02-07T00:08:55.258Z,2.17
2018-02-07T00:11:23.376Z,2.08
2018-02-07T00:13:51.498Z,2.03
2018-02-07T00:16:19.623Z,2.00
2018-02-07T00:18:47.731Z,2.00
2018-02-07T00:21:16.897Z,2.02
2018-02-07T00:23:45.074Z,2.17
2018-02-07T00:26:13.136Z,2.10
2018-02-07T00:28:41.274Z,1.99
2018-02-07T00:31:09.384Z,2.17
2018-02-07T00:33:37.494Z,1.73
2018-02-07T00:36:05.598Z,1.85
2018-02-07T00:38:33.709Z,1.95
2018-02-07T00:41:01.811Z,2.01
2018-02-07T00:43:34.421Z,2.13
2018-02-07T00:46:02.534Z,1.88
2018-02-07T00:48:30.638Z,1.83
2018-02-07T00:50:58.753Z,1.77
2018-02-07T00:53:26.857Z,1.76
2018-02-07T00:55:54.976Z,1.83
2018-02-07T00:58:23.086Z,1.90
2018-02-07T01:00:51.204Z,1.84
2018-02-07T01:03:19.314Z,1.79
2018-02-07T01:05:47.436Z,1.89
2018-02-07T01:08:15.549Z,1.95
2018-02-07T01:10:43.673Z,1.89
2018-02-07T01:13:11.805Z,1.99
2018-02-07T01:15:39.908Z,1.96
2018-02-07T01:18:13.164Z,1.93
2018-02-07T01:20:41.277Z,1.72
2018-02-07T01:23:09.410Z,1.55
2018-02-07T01:25:37.514Z,1.91
2018-02-07T01:28:06.584Z,1.91
2018-02-07T01:30:34.700Z,1.84
2018-02-07T01:33:09.745Z,1.97
2018-02-07T01:35:37.846Z,2.02
2018-02-07T01:38:05.954Z,1.86
2018-02-07T01:40:34.085Z,1.80
2018-02-07T01:43:02.197Z,1.61
2018-02-07T01:45:30.345Z,1.71
2018-02-07T01:47:58.434Z,1.82
2018-02-07T01:50:26.546Z,1.87
2018-02-07T01:52:54.708Z,1.85
2018-02-07T01:55:22.785Z,1.78
2018-02-07T01:57:50.891Z,1.74
2018-02-07T02:00:19.006Z,1.87
2018-02-07T02:02:47.124Z,1.89
2018-02-07T02:05:15.232Z,1.84
2018-02-07T02:07:43.349Z,1.81
2018-02-07T02:10:12.383Z,1.78
2018-02-07T02:12:40.524Z,1.85
2018-02-07T02:15:08.619Z,1.89
2018-02-07T02:17:36.756Z,1.86
2018-02-07T02:20:04.867Z,1.84
2018-02-07T02:22:32.988Z,1.72
2018-02-07T02:25:01.100Z,1.84
2018-02-07T02:27:29.225Z,1.78
2018-02-07T02:29:57.315Z,1.80
2018-02-07T02:32:25.434Z,1.71
2018-02-07T02:34:53.534Z,1.65
2018-02-07T02:37:21.647Z,1.73
2018-02-07T02:39:56.278Z,1.78
2018-02-07T02:42:24.379Z,1.70
2018-02-07T02:44:52.486Z,1.68
2018-02-07T02:47:20.604Z,1.74
2018-02-07T02:49:48.741Z,1.77
2018-02-07T02:52:22.715Z,1.71
2018-02-07T02:54:50.832Z,1.65
2018-02-07T02:57:18.942Z,1.63
2018-02-07T02:59:47.134Z,1.70
2018-02-07T03:02:15.257Z,1.56
2018-02-07T03:04:43.366Z,1.32
2018-02-07T03:07:11.519Z,1.34
2018-02-07T03:09:39.618Z,1.48
2018-02-07T03:12:07.738Z,1.54
2018-02-07T03:14:35.854Z,1.56
2018-02-07T03:17:03.970Z,1.47
2018-02-07T03:19:32.089Z,1.40
2018-02-07T03:22:00.186Z,1.38
2018-02-07T03:24:28.312Z,1.48
2018-02-07T03:27:06.836Z,1.46
2018-02-07T03:29:34.934Z,1.38
2018-02-07T03:32:03.040Z,1.61
2018-02-07T03:34:38.918Z,1.40
2018-02-07T03:37:07.034Z,1.66
2018-02-07T03:39:35.146Z,1.55
2018-02-07T03:42:03.242Z,1.61
2018-02-07T03:44:31.382Z,1.46
2018-02-07T03:46:59.490Z,1.47
2018-02-07T03:49:27.624Z,1.63
2018-02-07T03:51:55.752Z,1.58
2018-02-07T03:54:23.864Z,1.47
2018-02-07T03:56:51.993Z,1.51
2018-02-07T03:59:20.094Z,1.61
2018-02-07T04:01:48.210Z,1.60
2018-02-07T04:04:16.322Z,1.84
2018-02-07T04:06:44.465Z,1.63
2018-02-07T04:09:12.592Z,1.65
2018-02-07T04:11:40.717Z,1.71
2018-02-07T04:14:08.814Z,1.77
2018-02-07T04:16:36.930Z,1.67
2018-02-07T04:19:05.035Z,1.69
2018-02-07T04:21:33.149Z,1.65
2018-02-07T04:24:01.259Z,1.66
2018-02-07T04:26:29.399Z,1.67
2018-02-07T04:28:57.506Z,1.67
2018-02-07T04:31:25.628Z,1.71
2018-02-07T04:33:53.748Z,1.72
2018-02-07T04:36:21.859Z,1.30
2018-02-07T04:38:49.984Z,1.53
2018-02-07T04:41:18.084Z,1.46
2018-02-07T04:43:46.199Z,1.52
2018-02-07T04:46:14.298Z,1.55
2018-02-07T04:48:42.420Z,1.54
2018-02-07T04:51:10.519Z,1.57
2018-02-07T04:53:38.711Z,1.52
2018-02-07T04:56:06.828Z,1.36
2018-02-07T04:58:34.945Z,1.38
2018-02-07T05:01:03.055Z,1.38
2018-02-07T05:03:31.168Z,1.41
2018-02-07T05:05:59.280Z,1.30
2018-02-07T05:08:27.407Z,1.33
2018-02-07T05:10:55.514Z,1.28
2018-02-07T05:13:23.630Z,1.41
2018-02-07T05:15:51.735Z,1.55
2018-02-07T05:18:19.848Z,1.39
2018-02-07T05:20:47.981Z,1.43
2018-02-07T05:23:16.104Z,1.26
2018-02-07T05:25:44.256Z,1.29
2018-02-07T05:28:25.527Z,1.61
2018-02-07T05:30:53.646Z,1.38
2018-02-07T05:33:21.750Z,1.11
2018-02-07T05:35:54.230Z,1.08
2018-02-07T05:38:22.343Z,1.16
2018-02-07T05:40:51.386Z,1.35
2018-02-07T05:43:19.508Z,1.32
2018-02-07T05:45:47.610Z,1.06
2018-02-07T05:48:15.722Z,0.96
2018-02-07T05:50:43.857Z,0.93
2018-02-07T05:53:11.981Z,1.08
2018-02-07T05:55:40.088Z,0.97
2018-02-07T05:58:08.220Z,0.94
2018-02-07T06:00:36.336Z,0.95
2018-02-07T06:03:04.478Z,0.86
2018-02-07T06:05:32.578Z,0.79
2018-02-07T06:08:00.690Z,0.69
2018-02-07T06:10:28.811Z,0.84
2018-02-07T06:13:16.248Z,0.86
2018-02-07T06:15:44.380Z,0.84
2018-02-07T06:18:12.476Z,0.49
2018-02-07T06:20:40.600Z,0.69
2018-02-07T06:23:08.720Z,0.43
2018-02-07T06:25:36.836Z,0.56
2018-02-07T06:28:04.962Z,0.52
2018-02-07T06:30:33.068Z,0.41
2018-02-07T06:33:01.197Z,0.77
2018-02-07T06:35:29.414Z,1.24
2018-02-07T06:38:01.548Z,0.53
2018-02-07T06:40:35.960Z,0.51
2018-02-07T06:43:04.074Z,0.47
2018-02-07T06:45:32.174Z,0.48
2018-02-07T06:48:04.285Z,0.71
2018-02-07T06:50:32.386Z,0.70
2018-02-07T06:53:19.322Z,0.31
2018-02-07T06:55:47.433Z,0.39
2018-02-07T06:58:15.552Z,0.09
2018-02-07T07:00:43.674Z,0.21
2018-02-07T07:03:11.788Z,-0.03
2018-02-07T07:05:42.974Z,0.01
2018-02-07T07:08:11.286Z,0.22
2018-02-07T07:10:39.514Z,0.27
2018-02-07T07:13:07.644Z,0.34
2018-02-07T07:15:38.746Z,0.36
2018-02-07T07:18:06.878Z,0.12
2018-02-07T07:20:44.942Z,0.26
2018-02-07T07:23:13.103Z,0.38
2018-02-07T07:25:44.453Z,0.09
2018-02-07T07:28:17.262Z,0.10
2018-02-07T07:30:45.373Z,0.20
2018-02-07T07:33:15.414Z,0.22
2018-02-07T07:35:43.557Z,0.19
2018-02-07T07:38:11.688Z,0.25
2018-02-07T07:40:39.802Z,0.15
2018-02-07T07:43:07.904Z,0.15
2018-02-07T07:45:45.758Z,0.09
2018-02-07T07:48:14.790Z,0.07
2018-02-07T07:50:43.826Z,0.19
2018-02-07T07:53:11.968Z,0.25
2018-02-07T07:55:40.066Z,0.80
2018-02-07T07:58:10.219Z,0.62
2018-02-07T08:00:39.283Z,0.36
2018-02-07T08:03:11.456Z,0.34
2018-02-07T08:05:39.552Z,0.26
2018-02-07T08:08:07.680Z,0.28
2018-02-07T08:10:35.830Z,0.34
2018-02-07T08:13:09.745Z,0.31
2018-02-07T08:15:41.834Z,0.20
2018-02-07T08:18:09.950Z,0.42
2018-02-07T08:20:38.082Z,0.47
2018-02-07T08:23:06.221Z,0.44
2018-02-07T08:25:34.355Z,0.28
2018-02-07T08:28:02.610Z,0.23
2018-02-07T08:30:30.718Z,0.38
2018-02-07T08:32:59.858Z,0.15
2018-02-07T08:35:27.974Z,-0.01
2018-02-07T08:37:56.112Z,-0.18
2018-02-07T08:40:24.221Z,0.22
2018-02-07T08:42:52.353Z,0.58
2018-02-07T08:45:20.452Z,0.86
2018-02-07T08:47:48.550Z,0.66
2018-02-07T08:50:21.205Z,0.75
2018-02-07T08:52:49.317Z,1.17
2018-02-07T08:55:17.465Z,2.25
2018-02-07T08:57:59.215Z,2.19
2018-02-07T09:00:27.342Z,1.96
2018-02-07T09:02:55.478Z,1.43
2018-02-07T09:05:23.610Z,1.35
2018-02-07T09:07:51.716Z,1.48
2018-02-07T09:10:23.784Z,1.53
2018-02-07T09:12:51.934Z,1.68
2018-02-07T09:15:20.066Z,1.61
2018-02-07T09:17:49.156Z,1.79
2018-02-07T09:20:17.276Z,1.95
2018-02-07T09:22:46.402Z,2.10
2018-02-07T09:25:14.549Z,1.85
2018-02-07T09:27:46.522Z,1.82
2018-02-07T09:30:14.648Z,1.97
2018-02-07T09:32:42.773Z,1.49
2018-02-07T09:35:10.893Z,2.36
2018-02-07T09:37:40.943Z,2.39
2018-02-07T09:40:09.078Z,2.33
2018-02-07T09:42:38.106Z,2.47
2018-02-07T09:45:06.248Z,2.40
2018-02-07T09:47:34.368Z,2.36
2018-02-07T09:50:02.515Z,2.31
2018-02-07T09:52:30.639Z,2.91
2018-02-07T09:55:02.478Z,2.97
2018-02-07T09:57:32.615Z,3.27
2018-02-07T10:00:00.716Z,2.95
2018-02-07T10:02:30.775Z,3.51
2018-02-07T10:04:58.903Z,3.33
2018-02-07T10:07:33.126Z,3.34
2018-02-07T10:10:11.745Z,3.72
2018-02-07T10:12:41.859Z,3.80
2018-02-07T10:15:14.574Z,3.74
2018-02-07T10:17:42.714Z,3.22
2018-02-07T10:20:15.155Z,3.25
2018-02-07T10:22:43.315Z,3.56
2018-02-07T10:25:11.432Z,3.86
2018-02-07T10:27:39.532Z,3.41
2018-02-07T10:30:07.643Z,5.00
2018-02-07T10:32:38.954Z,4.52
2018-02-07T10:35:07.076Z,4.00
2018-02-07T10:37:35.187Z,3.90
2018-02-07T10:40:03.336Z,3.68
2018-02-07T10:42:31.436Z,3.62
2018-02-07T10:44:59.574Z,3.73
2018-02-07T10:47:27.678Z,3.86
2018-02-07T10:49:55.795Z,3.74
2018-02-07T10:52:23.930Z,3.99
2018-02-07T10:54:52.036Z,3.73
2018-02-07T10:57:25.834Z,3.50
2018-02-07T10:59:53.960Z,3.51
2018-02-07T11:02:22.074Z,3.48
2018-02-07T11:04:50.223Z,3.45
2018-02-07T11:07:18.338Z,3.78
2018-02-07T11:09:46.458Z,3.96
2018-02-07T11:12:15.520Z,3.53
2018-02-07T11:14:48.474Z,3.17
2018-02-07T11:17:16.591Z,3.63
2018-02-07T11:19:44.698Z,3.47
2018-02-07T11:22:12.814Z,3.68
2018-02-07T11:24:40.975Z,3.90
2018-02-07T11:27:09.124Z,3.66
2018-02-07T11:29:37.453Z,3.79
2018-02-07T11:32:07.428Z,4.07
2018-02-07T11:34:36.491Z,4.42
2018-02-07T11:37:04.708Z,4.41
2018-02-07T11:39:32.807Z,4.54
2018-02-07T11:42:04.644Z,4.43
2018-02-07T11:44:32.768Z,4.10
2018-02-07T11:47:00.877Z,4.10
2018-02-07T11:49:28.981Z,4.06
2018-02-07T11:51:57.118Z,4.63
2018-02-07T11:54:25.261Z,4.76
2018-02-07T11:56:54.390Z,4.69
2018-02-07T11:59:22.515Z,4.81
2018-02-07T12:01:56.100Z,4.73
2018-02-07T12:04:24.214Z,4.98
2018-02-07T12:06:53.072Z,4.81
2018-02-07T12:09:22.248Z,4.47
2018-02-07T12:11:50.366Z,4.16
2018-02-07T12:14:19.400Z,4.24
2018-02-07T12:16:47.522Z,4.42
2018-02-07T12:19:18.929Z,4.40
2018-02-07T12:21:47.092Z,4.42
2018-02-07T12:24:15.205Z,4.57
2018-02-07T12:26:43.339Z,4.46
2018-02-07T12:29:11.443Z,4.39
2018-02-07T12:31:39.568Z,4.61
2018-02-07T12:34:07.675Z,4.03
2018-02-07T12:36:35.786Z,4.61
2018-02-07T12:39:04.988Z,4.28
2018-02-07T12:41:34.026Z,4.67
2018-02-07T12:44:02.218Z,4.78
2018-02-07T12:46:30.320Z,5.25
2018-02-07T12:48:58.505Z,5.25
2018-02-07T12:51:47.437Z,5.43
2018-02-07T12:54:15.538Z,5.20
2018-02-07T12:56:43.658Z,5.42
2018-02-07T12:59:11.784Z,5.61
2018-02-07T13:01:43.290Z,5.46
2018-02-07T13:04:11.399Z,5.46
2018-02-07T13:06:42.927Z,5.27
2018-02-07T13:09:11.037Z,5.58
2018-02-07T13:11:44.166Z,5.68
2018-02-07T13:14:12.277Z,5.59
2018-02-07T13:16:40.387Z,5.67
2018-02-07T13:19:08.526Z,5.15
2018-02-07T13:21:36.643Z,5.41
2018-02-07T13:24:04.764Z,5.61
2018-02-07T13:26:33.818Z,5.51
2018-02-07T13:29:01.969Z,5.54
2018-02-07T13:31:30.978Z,5.00
2018-02-07T13:33:59.071Z,5.29
2018-02-07T13:36:30.109Z,5.20
2018-02-07T13:38:58.226Z,5.10
2018-02-07T13:41:26.354Z,4.83
2018-02-07T13:43:54.469Z,5.04
2018-02-07T13:46:28.875Z,4.83
2018-02-07T13:48:56.974Z,4.87
2018-02-07T13:51:25.229Z,4.90
2018-02-07T13:53:53.345Z,5.05
2018-02-07T13:56:21.450Z,4.96
2018-02-07T13:58:49.585Z,4.80
2018-02-07T14:01:17.701Z,5.04
2018-02-07T14:03:45.834Z,5.07
2018-02-07T14:06:13.978Z,5.03
2018-02-07T14:08:45.077Z,4.84
2018-02-07T14:11:13.178Z,4.57
2018-02-07T14:13:41.322Z,4.52
2018-02-07T14:16:09.432Z,4.65
2018-02-07T14:18:43.195Z,4.61
2018-02-07T14:21:11.571Z,4.78
2018-02-07T14:23:40.041Z,4.85
2018-02-07T14:26:08.169Z,4.66
2018-02-07T14:28:37.231Z,4.68
2018-02-07T14:31:05.336Z,4.73
2018-02-07T14:33:33.443Z,4.48
2018-02-07T14:36:01.556Z,4.34
2018-02-07T14:38:29.662Z,4.20
2018-02-07T14:40:57.798Z,4.46
2018-02-07T14:43:27.952Z,4.37
2018-02-07T14:45:57.033Z,4.38
2018-02-07T14:48:37.072Z,4.17
2018-02-07T14:51:08.906Z,4.26
2018-02-07T14:53:37.024Z,4.12
2018-02-07T14:56:06.069Z,4.15
2018-02-07T14:58:34.192Z,3.92
2018-02-07T15:01:09.036Z,4.00
2018-02-07T15:03:40.942Z,4.19
2018-02-07T15:06:09.055Z,4.06
2018-02-07T15:08:37.192Z,4.04
2018-02-07T15:11:15.759Z,4.14
2018-02-07T15:13:47.658Z,4.24
2018-02-07T15:16:15.777Z,4.31
2018-02-07T15:18:44.834Z,4.25
2018-02-07T15:21:12.948Z,3.91
2018-02-07T15:23:43.016Z,3.79
2018-02-07T15:26:11.127Z,3.94
2018-02-07T15:28:39.246Z,3.97
2018-02-07T15:31:07.376Z,3.83
2018-02-07T15:33:46.519Z,3.89
2018-02-07T15:36:15.577Z,3.97
2018-02-07T15:38:43.682Z,4.05
2018-02-07T15:41:16.965Z,3.91
2018-02-07T15:43:45.064Z,3.88
2018-02-07T15:46:14.113Z,3.52
2018-02-07T15:48:44.230Z,3.74
2018-02-07T15:51:12.392Z,3.84
2018-02-07T15:53:40.499Z,3.74
2018-02-07T15:56:08.598Z,3.53
2018-02-07T15:58:37.657Z,3.63
2018-02-07T16:03:59.350Z,3.77
2018-02-07T16:06:27.501Z,3.56
2018-02-07T16:08:56.037Z,3.40
2018-02-07T16:11:28.419Z,3.20
2018-02-07T16:14:01.922Z,3.11
2018-02-07T16:16:30.998Z,3.32
2018-02-07T16:18:59.485Z,3.23
2018-02-07T16:21:28.817Z,3.33
2018-02-07T16:23:57.044Z,3.19
2018-02-07T16:26:25.180Z,3.10
2018-02-07T16:28:54.287Z,3.25
2018-02-07T16:31:32.834Z,3.05
2018-02-07T16:34:00.954Z,3.05
2018-02-07T16:36:29.191Z,3.28
2018-02-07T16:38:57.303Z,2.95
2018-02-07T16:41:30.038Z,2.93
2018-02-07T16:43:58.164Z,3.06
2018-02-07T16:46:26.458Z,2.97
2018-02-07T16:48:54.594Z,3.26
2018-02-07T16:51:22.755Z,2.84
2018-02-07T16:54:12.275Z,2.77
2018-02-07T16:56:40.379Z,2.96
2018-02-07T16:59:08.490Z,2.97
2018-02-07T17:01:36.634Z,2.82
2018-02-07T17:04:04.743Z,2.71
2018-02-07T17:06:35.840Z,2.88
2018-02-07T17:09:03.943Z,2.90
2018-02-07T17:11:32.050Z,2.69
2018-02-07T17:14:02.092Z,2.72
2018-02-07T17:16:32.141Z,2.89
2018-02-07T17:19:00.265Z,2.97
2018-02-07T17:21:30.314Z,2.61
2018-02-07T17:23:58.444Z,2.63
2018-02-07T17:26:28.512Z,2.55
2018-02-07T17:28:56.630Z,2.56
2018-02-07T17:31:36.062Z,2.56
2018-02-07T17:34:04.193Z,2.53
2018-02-07T17:36:32.324Z,2.55
2018-02-07T17:39:00.465Z,2.46
2018-02-07T17:41:28.568Z,2.45
2018-02-07T17:43:56.671Z,2.96
2018-02-07T17:46:24.815Z,2.63
2018-02-07T17:48:52.978Z,2.49
2018-02-07T17:51:23.014Z,2.43
2018-02-07T17:53:54.389Z,2.31
2018-02-07T17:56:22.516Z,2.49
2018-02-07T17:58:53.975Z,2.53
2018-02-07T18:01:25.895Z,2.37
2018-02-07T18:03:54.011Z,2.28
2018-02-07T18:06:27.899Z,2.10
2018-02-07T18:08:59.715Z,3.95
2018-02-07T18:11:27.999Z,4.24
2018-02-07T18:13:56.086Z,2.70
2018-02-07T18:16:24.195Z,2.25
2018-02-07T18:18:52.320Z,2.42
2018-02-07T18:21:20.418Z,2.28
2018-02-07T18:23:48.531Z,2.29
2018-02-07T18:26:16.656Z,2.18
2018-02-07T18:28:44.776Z,2.12
2018-02-07T18:31:12.874Z,1.98
2018-02-07T18:33:41.012Z,2.02
2018-02-07T18:36:12.508Z,1.96
2018-02-07T18:38:40.633Z,2.53
2018-02-07T18:41:09.668Z,2.19
2018-02-07T18:43:37.784Z,2.01
2018-02-07T18:46:05.900Z,2.07
2018-02-07T18:48:34.005Z,2.07
2018-02-07T18:51:02.110Z,2.00
2018-02-07T18:53:30.272Z,1.93
2018-02-07T18:55:58.382Z,1.84
2018-02-07T18:58:26.486Z,1.86
2018-02-07T19:00:54.600Z,1.73
2018-02-07T19:03:22.698Z,1.50
2018-02-07T19:05:50.817Z,1.70
2018-02-07T19:08:18.936Z,1.92
2018-02-07T19:10:53.342Z,1.87
2018-02-07T19:13:25.338Z,1.86
2018-02-07T19:15:53.442Z,1.84
2018-02-07T19:18:29.563Z,1.78
2018-02-07T19:20:59.601Z,1.58
2018-02-07T19:23:27.710Z,1.72
2018-02-07T19:26:00.942Z,1.61
2018-02-07T19:28:29.065Z,1.70
2018-02-07T19:31:04.856Z,1.62
2018-02-07T19:33:32.994Z,1.45
2018-02-07T19:36:01.202Z,1.55
2018-02-07T19:38:31.273Z,1.50
2018-02-07T19:40:59.380Z,1.46
2018-02-07T19:43:29.386Z,1.51
2018-02-07T19:45:57.522Z,1.53
2018-02-07T19:48:25.634Z,1.50
2018-02-07T19:50:54.661Z,1.43
2018-02-07T19:53:22.780Z,1.43
2018-02-07T19:55:50.914Z,1.37
2018-02-07T19:58:19.376Z,1.37
2018-02-07T20:00:48.465Z,1.36
2018-02-07T20:03:17.487Z,1.31
2018-02-07T20:05:45.595Z,1.29
2018-02-07T20:08:13.734Z,1.29
2018-02-07T20:10:41.823Z,1.28
2018-02-07T20:13:09.947Z,1.26
2018-02-07T20:15:44.014Z,1.23
2018-02-07T20:18:16.067Z,1.21
2018-02-07T20:20:44.207Z,1.22
2018-02-07T20:23:15.601Z,1.20
2018-02-07T20:25:43.727Z,1.26
2018-02-07T20:28:11.833Z,1.20
2018-02-07T20:30:39.938Z,1.15
2018-02-07T20:33:12.277Z,1.08
2018-02-07T20:35:40.397Z,1.12
2018-02-07T20:38:11.458Z,1.05
2018-02-07T20:40:46.079Z,1.00
2018-02-07T20:43:15.094Z,0.91
2018-02-07T20:45:45.149Z,0.93
2018-02-07T20:48:13.245Z,0.97
2018-02-07T20:50:49.704Z,0.96
2018-02-07T20:53:17.814Z,0.95
2018-02-07T20:55:45.932Z,0.97
2018-02-07T20:58:14.807Z,0.99
2018-02-07T21:00:42.916Z,0.96
2018-02-07T21:03:14.838Z,0.94
2018-02-07T21:05:42.952Z,0.87
2018-02-07T21:08:15.511Z,0.87
2018-02-07T21:10:43.615Z,0.88
2018-02-07T21:13:26.360Z,0.86
2018-02-07T21:15:54.484Z,0.84
2018-02-07T21:18:23.569Z,0.75
2018-02-07T21:20:51.666Z,0.71
2018-02-07T21:23:28.378Z,0.73
2018-02-07T21:25:56.493Z,0.77
2018-02-07T21:28:24.612Z,0.78
2018-02-07T21:30:52.719Z,0.73
2018-02-07T21:33:20.856Z,0.74
2018-02-07T21:35:56.695Z,0.72
2018-02-07T21:38:24.831Z,0.70
2018-02-07T21:40:52.949Z,0.67
2018-02-07T21:43:21.080Z,0.64
2018-02-07T21:45:52.718Z,0.59
2018-02-07T21:48:20.839Z,0.58
2018-02-07T21:51:05.428Z,0.58
2018-02-07T21:53:33.548Z,0.59
2018-02-07T21:56:15.701Z,0.60
2018-02-07T21:58:43.798Z,0.60
2018-02-07T22:01:11.910Z,0.55
2018-02-07T22:03:42.930Z,0.51
2018-02-07T22:06:11.034Z,0.46
2018-02-07T22:08:39.185Z,0.44
2018-02-07T22:11:07.282Z,0.44
2018-02-07T22:13:35.413Z,0.49
2018-02-07T22:16:03.520Z,0.45
2018-02-07T22:18:31.652Z,0.43
2018-02-07T22:20:59.761Z,0.33
2018-02-07T22:23:27.867Z,0.34
2018-02-07T22:25:55.982Z,0.37
2018-02-07T22:28:38.474Z,0.37
2018-02-07T22:31:06.590Z,0.35
2018-02-07T22:33:34.813Z,0.29
2018-02-07T22:36:02.991Z,0.27
2018-02-07T22:38:31.070Z,0.17
2018-02-07T22:40:59.208Z,0.21
2018-02-07T22:43:27.332Z,0.23
2018-02-07T22:45:55.445Z,0.23
2018-02-07T22:48:23.538Z,0.26
2018-02-07T22:50:51.654Z,0.24
2018-02-07T22:53:19.762Z,0.19
2018-02-07T22:55:47.876Z,0.11
2018-02-07T22:58:16.008Z,0.08
2018-02-07T23:00:44.124Z,0.08
2018-02-07T23:03:12.220Z,0.08
2018-02-07T23:05:40.348Z,0.08
2018-02-07T23:08:08.434Z,0.08
2018-02-07T23:10:36.547Z,0.04
2018-02-07T23:13:10.670Z,-0.04
2018-02-07T23:15:39.720Z,-0.03
2018-02-07T23:18:07.846Z,0.01
2018-02-07T23:20:35.960Z,-0.16
2018-02-07T23:23:04.070Z,-0.09
2018-02-07T23:25:32.178Z,-0.09
2018-02-07T23:28:00.294Z,-0.09
2018-02-07T23:30:31.916Z,-0.05
2018-02-07T23:33:00.030Z,-0.15
2018-02-07T23:35:28.161Z,-0.30
2018-02-07T23:37:56.276Z,-0.25
2018-02-07T23:40:24.441Z,-0.23
2018-02-07T23:42:52.556Z,-0.24
2018-02-07T23:45:20.701Z,-0.34
2018-02-07T23:47:48.825Z,-0.28
2018-02-07T23:50:16.959Z,-0.35
2018-02-07T23:52:45.060Z,-0.37
2018-02-07T23:55:13.195Z,-0.41
2018-02-07T23:57:56.248Z,-0.64
